Elk, CA (95432)

12:52 AM PST on December 25, 2014 (GMT -0800)
NonFedAWOS LITTLE RIVER AIRPORT CA US SUPERAWOS | Change Station
CLOSE
Current Station
Personal Weather Station
Location: Little River, CA
Elevation: 571 ft
Nearby Weather Stations

Elev 571 ft 39.26 °N, 123.75 °W | Updated 57 minutes ago

Clear
Clear
46 °F
Feels Like 46 °F
N
0
Wind Variable Wind from North
Gusts 0.0 mph

Today
High -- | Low -- °F
--% Chance of Precip.
Yesterday
High -- | Low -- °F
Precip. -- in
7:32 AM 4:57 PM
Waxing Crescent, 14% visible
Pressure 30.15 in
Visibility 10.0 miles
Clouds Clear
Windchill 46 °F
Dew Point 37 °F
Humidity 71%
Rainfall -999.00 in
Snow Depth Not available.
UV 0 out of 12
Pollen .30 out of 12
Air Quality Not available.
Flu Activity Not available.
METAR KUKI 250756Z AUTO VRB03KT 10SM CLR 06/01 A3016 RMK AO2 SLP210 T00610011 401280061

More Conditions Fewer Conditions

Pressure 30.15 in
Visibility 10.0 miles
Clouds Clear
Windchill 46 °F
Dew Point 37 °F
Humidity 71%
Rainfall -999.00 in
Snow Depth Not available.
UV 0 out of 12
Pollen .30 out of 12
Air Quality Not available.
Flu Activity Not available.
METAR KUKI 250756Z AUTO VRB03KT 10SM CLR 06/01 A3016 RMK AO2 SLP210 T00610011 401280061

More Conditions Fewer Conditions

10-Day Weather Forecast

Almanac

Astronomy

Dec. 25, 2014 Rise Set
Actual Time
Civil Twilight
Nautical Twilight
Astronomical Twilight
Moon
Length of Visible Light
Length of Day
Tomorrow will be .
, % of the Moon is Illuminated

Today's Extremes

State Highs State Lows

Community

WunderPhotos

Upload Photos

1,780,250 photos uploaded!

WunderBlogs® & News

Nearby

Air Quality

  Air Quality AQ Index Pollutant
Not available.

Snow Depth

Station Depth Elevation

Earthquake Activity

City Distance Mag. Time & Date
Minimum magnitude displayed is 2.5.

Coastal Water Temperatures

Place Temperature

Nearby Weather Stations